createdAt,value
2022-10-19T00:01:13.738Z,5.20
2022-10-19T00:03:41.509Z,5.50
2022-10-19T00:06:17.287Z,5.70
2022-10-19T00:08:44.758Z,6.37
2022-10-19T00:11:13.018Z,6.50
2022-10-19T00:13:40.687Z,6.97
2022-10-19T00:16:11.383Z,5.53
2022-10-19T00:18:39.317Z,5.80
2022-10-19T00:21:07.489Z,5.37
2022-10-19T00:23:35.298Z,5.83
2022-10-19T00:26:02.529Z,5.90
2022-10-19T00:28:29.838Z,5.30
2022-10-19T00:30:57.469Z,5.60
2022-10-19T00:33:25.043Z,5.37
2022-10-19T00:35:53.273Z,5.63
2022-10-19T00:38:21.624Z,5.43
2022-10-19T00:40:49.883Z,5.83
2022-10-19T00:43:22.049Z,6.57
2022-10-19T00:45:49.598Z,6.57
2022-10-19T00:48:21.797Z,6.40
2022-10-19T00:50:50.963Z,5.70
2022-10-19T00:53:18.321Z,6.30
2022-10-19T00:55:46.190Z,6.40
2022-10-19T00:58:14.018Z,5.70
2022-10-19T01:00:41.299Z,5.17
2022-10-19T01:03:09.196Z,5.47
2022-10-19T01:05:40.026Z,5.17
2022-10-19T01:08:07.792Z,5.80
2022-10-19T01:11:01.797Z,5.53
2022-10-19T01:13:51.183Z,5.20
2022-10-19T01:16:29.371Z,6.10
2022-10-19T01:19:05.940Z,5.47
2022-10-19T01:21:36.698Z,4.83
2022-10-19T01:24:23.270Z,5.00
2022-10-19T01:27:26.130Z,5.57
2022-10-19T01:29:53.438Z,5.03
2022-10-19T01:32:25.380Z,12.47
2022-10-19T01:34:57.708Z,5.80
2022-10-19T01:37:28.064Z,7.87
2022-10-19T01:40:03.056Z,7.50
2022-10-19T01:42:30.310Z,10.57
2022-10-19T01:45:07.196Z,11.37
2022-10-19T01:47:37.027Z,9.07
2022-10-19T01:50:08.665Z,17.47
2022-10-19T01:52:37.492Z,11.30
2022-10-19T01:55:05.236Z,7.70
2022-10-19T01:57:46.765Z,5.70
2022-10-19T02:00:15.890Z,6.80
2022-10-19T02:02:45.981Z,7.33
2022-10-19T02:05:14.420Z,6.90
2022-10-19T02:07:42.972Z,6.93
2022-10-19T02:10:10.432Z,5.57
2022-10-19T02:12:38.410Z,6.07
2022-10-19T02:15:10.530Z,6.00
2022-10-19T02:17:43.226Z,4.97
2022-10-19T02:20:10.571Z,5.27
2022-10-19T02:22:38.059Z,6.13
2022-10-19T02:25:05.916Z,5.80
2022-10-19T02:27:33.666Z,6.97
2022-10-19T02:30:00.930Z,6.63
2022-10-19T02:32:28.930Z,5.60
2022-10-19T02:34:56.213Z,6.60
2022-10-19T02:37:25.688Z,6.83
2022-10-19T02:39:53.332Z,6.67
2022-10-19T02:42:28.673Z,6.50
2022-10-19T02:45:00.741Z,5.33
2022-10-19T02:47:34.194Z,5.37
2022-10-19T02:50:02.125Z,5.10
2022-10-19T02:52:30.522Z,6.00
2022-10-19T02:54:57.780Z,5.93
2022-10-19T02:57:26.017Z,5.90
2022-10-19T02:59:53.613Z,7.37
2022-10-19T03:02:21.596Z,7.53
2022-10-19T03:04:48.943Z,7.70
2022-10-19T03:07:17.917Z,7.33
2022-10-19T03:09:45.377Z,7.87
2022-10-19T03:12:13.442Z,6.93
2022-10-19T03:14:40.814Z,4.73
2022-10-19T03:17:08.102Z,5.73
2022-10-19T03:19:35.539Z,5.80
2022-10-19T03:22:02.851Z,15.93
2022-10-19T03:24:30.689Z,17.80
2022-10-19T03:26:58.233Z,5.77
2022-10-19T03:29:25.529Z,15.93
2022-10-19T03:31:52.765Z,14.80
2022-10-19T03:34:20.062Z,11.10
2022-10-19T03:36:47.363Z,12.87
2022-10-19T03:39:15.604Z,9.30
2022-10-19T03:41:43.097Z,5.60
2022-10-19T03:44:10.727Z,5.43
2022-10-19T03:46:38.456Z,3.50
2022-10-19T03:49:05.664Z,3.20
2022-10-19T03:51:33.416Z,4.33
2022-10-19T03:54:01.831Z,4.23
2022-10-19T03:56:30.092Z,4.30
2022-10-19T03:58:58.494Z,3.60
2022-10-19T04:01:27.174Z,3.70
2022-10-19T04:03:55.455Z,3.80
2022-10-19T04:06:24.848Z,3.60
2022-10-19T04:08:52.272Z,3.30
2022-10-19T04:11:21.095Z,3.57
2022-10-19T04:13:51.936Z,3.50
2022-10-19T04:16:19.835Z,4.20
2022-10-19T04:18:47.627Z,3.83
2022-10-19T04:21:20.928Z,3.97
2022-10-19T04:23:48.599Z,3.97
2022-10-19T04:26:16.099Z,4.17
2022-10-19T04:28:43.445Z,3.87
2022-10-19T04:31:12.696Z,3.40
2022-10-19T04:33:40.583Z,3.70
2022-10-19T04:36:09.030Z,3.40
2022-10-19T04:38:36.637Z,3.53
2022-10-19T04:41:05.421Z,4.03
2022-10-19T04:43:33.034Z,4.17
2022-10-19T04:46:11.270Z,4.50
2022-10-19T04:48:39.354Z,4.97
2022-10-19T04:51:07.145Z,8.20
2022-10-19T04:53:35.158Z,6.97
2022-10-19T04:56:05.277Z,5.67
2022-10-19T04:58:32.528Z,4.77
2022-10-19T05:00:59.869Z,4.73
2022-10-19T05:03:27.228Z,4.47
2022-10-19T05:05:54.657Z,3.20
2022-10-19T05:08:21.858Z,10.03
2022-10-19T05:10:49.141Z,5.90
2022-10-19T05:13:16.437Z,8.93
2022-10-19T05:15:43.805Z,3.60
2022-10-19T05:18:11.043Z,3.97
2022-10-19T05:20:38.296Z,4.20
2022-10-19T05:23:07.285Z,4.20
2022-10-19T05:25:34.752Z,3.90
2022-10-19T05:28:01.991Z,4.80
2022-10-19T05:30:29.298Z,5.27
2022-10-19T05:32:56.707Z,5.67
2022-10-19T05:35:24.026Z,5.30
2022-10-19T05:37:57.323Z,5.17
2022-10-19T05:40:24.563Z,4.40
2022-10-19T05:42:51.744Z,5.13
2022-10-19T05:45:19.131Z,5.43
2022-10-19T05:47:46.394Z,5.70
2022-10-19T05:50:13.636Z,6.50
2022-10-19T05:52:40.964Z,7.30
2022-10-19T05:55:08.543Z,8.80
2022-10-19T05:57:36.111Z,8.83
2022-10-19T06:00:04.962Z,8.20
2022-10-19T06:02:32.224Z,8.47
2022-10-19T06:04:59.502Z,8.67
2022-10-19T06:07:26.659Z,8.93
2022-10-19T06:09:53.927Z,9.07
2022-10-19T06:12:24.335Z,10.10
2022-10-19T06:14:52.478Z,10.40
2022-10-19T06:17:19.717Z,11.07
2022-10-19T06:19:47.076Z,10.07
2022-10-19T06:22:14.336Z,11.30
2022-10-19T06:24:41.662Z,13.80
2022-10-19T06:27:11.786Z,16.57
2022-10-19T06:29:39.090Z,15.20
2022-10-19T06:32:06.547Z,15.87
2022-10-19T06:34:33.951Z,15.37
2022-10-19T06:37:01.221Z,13.27
2022-10-19T06:39:28.478Z,12.03
2022-10-19T06:41:55.730Z,12.30
2022-10-19T06:44:23.148Z,11.87
2022-10-19T06:46:50.374Z,12.30
2022-10-19T06:49:17.685Z,10.33
2022-10-19T06:51:45.120Z,9.77
2022-10-19T06:54:12.475Z,12.20
2022-10-19T06:56:39.803Z,10.17
2022-10-19T06:59:07.365Z,7.30
2022-10-19T07:01:34.950Z,7.20
2022-10-19T07:04:02.882Z,5.73
2022-10-19T07:06:30.156Z,7.53
2022-10-19T07:08:57.395Z,6.57
2022-10-19T07:11:24.716Z,6.93
2022-10-19T07:13:53.659Z,5.93
2022-10-19T07:16:21.726Z,6.13
2022-10-19T07:18:50.251Z,7.00
2022-10-19T07:21:18.050Z,6.40
2022-10-19T07:23:47.296Z,5.60
2022-10-19T07:26:14.911Z,6.67
2022-10-19T07:28:44.646Z,6.90
2022-10-19T07:31:13.366Z,7.47
2022-10-19T07:33:40.666Z,6.20
2022-10-19T07:36:09.115Z,6.38
2022-10-19T07:38:36.790Z,6.20
2022-10-19T07:41:08.452Z,5.93
2022-10-19T07:43:36.626Z,5.82
2022-10-19T07:46:06.322Z,5.80
2022-10-19T07:48:34.236Z,5.72
2022-10-19T07:51:02.323Z,5.57
2022-10-19T07:53:29.813Z,6.78
2022-10-19T07:55:57.003Z,5.78
2022-10-19T07:58:24.297Z,4.80
2022-10-19T08:00:51.697Z,4.97
2022-10-19T08:04:13.764Z,6.65
2022-10-19T08:06:07.496Z,5.93
2022-10-19T08:08:35.499Z,5.55
2022-10-19T08:11:10.440Z,4.95
2022-10-19T08:13:38.059Z,5.55
2022-10-19T08:16:05.921Z,5.63
2022-10-19T08:18:33.378Z,6.70
2022-10-19T08:21:03.217Z,6.00
2022-10-19T08:23:30.487Z,5.70
2022-10-19T08:26:00.899Z,5.95
2022-10-19T08:28:28.193Z,5.80
2022-10-19T08:30:58.889Z,6.10
2022-10-19T08:33:26.811Z,6.43
2022-10-19T08:35:54.189Z,5.93
2022-10-19T08:38:21.824Z,6.43
2022-10-19T08:40:49.419Z,6.55
2022-10-19T08:43:19.778Z,7.03
2022-10-19T08:45:56.239Z,7.82
2022-10-19T08:48:25.197Z,7.95
2022-10-19T08:50:53.091Z,6.47
2022-10-19T08:53:36.488Z,6.60
2022-10-19T08:56:06.876Z,5.50
2022-10-19T08:58:46.036Z,8.82
2022-10-19T09:01:13.642Z,11.15
2022-10-19T09:03:56.637Z,7.60
2022-10-19T09:06:34.986Z,5.93
2022-10-19T09:09:02.385Z,6.05
2022-10-19T09:11:35.563Z,5.95
2022-10-19T09:14:12.016Z,5.85
2022-10-19T09:16:39.357Z,5.32
2022-10-19T09:19:29.351Z,5.75
2022-10-19T09:21:58.139Z,6.50
2022-10-19T09:24:30.489Z,5.57
2022-10-19T09:26:59.872Z,5.80
2022-10-19T09:29:30.080Z,6.15
2022-10-19T09:34:28.340Z,5.65
2022-10-19T09:36:59.694Z,6.70
2022-10-19T09:39:29.549Z,7.25
2022-10-19T09:42:05.654Z,9.07
2022-10-19T09:44:33.159Z,21.13
2022-10-19T09:47:29.897Z,15.10
2022-10-19T09:50:20.472Z,6.63
2022-10-19T09:52:49.173Z,7.45
2022-10-19T09:55:22.641Z,5.80
2022-10-19T09:57:51.628Z,6.07
2022-10-19T10:00:39.235Z,6.40
2022-10-19T10:03:07.712Z,7.40
2022-10-19T10:05:34.971Z,6.93
2022-10-19T10:08:02.775Z,7.70
2022-10-19T10:10:34.665Z,8.13
2022-10-19T10:13:02.376Z,7.88
2022-10-19T10:15:36.188Z,7.88
2022-10-19T10:18:03.892Z,7.07
2022-10-19T10:20:32.598Z,8.43
2022-10-19T10:23:02.375Z,8.20
2022-10-19T10:25:31.821Z,8.00
2022-10-19T10:28:04.292Z,8.20
2022-10-19T10:30:34.846Z,8.27
2022-10-19T10:33:09.468Z,8.65
2022-10-19T10:35:53.641Z,8.57
2022-10-19T10:38:24.525Z,8.43
2022-10-19T10:41:01.046Z,8.52
2022-10-19T10:43:32.609Z,9.30
2022-10-19T10:46:15.026Z,9.18
2022-10-19T10:48:45.041Z,10.00
2022-10-19T10:51:24.113Z,9.43
2022-10-19T10:53:51.809Z,9.02
2022-10-19T10:56:22.361Z,10.10
2022-10-19T10:58:53.684Z,9.30
2022-10-19T11:01:24.979Z,10.30
2022-10-19T11:03:55.679Z,9.68
2022-10-19T11:08:59.907Z,9.07
2022-10-19T11:11:27.214Z,8.95
2022-10-19T11:13:54.393Z,10.13
2022-10-19T11:16:33.380Z,10.32
2022-10-19T11:19:09.277Z,14.20
2022-10-19T11:21:42.720Z,14.68
2022-10-19T11:24:16.126Z,11.32
2022-10-19T11:27:01.964Z,12.82
2022-10-19T11:29:32.360Z,11.93
2022-10-19T11:31:59.673Z,11.27
2022-10-19T11:34:37.250Z,12.43
2022-10-19T11:37:23.303Z,12.63
2022-10-19T11:39:56.612Z,12.38
2022-10-19T11:42:23.903Z,10.65
2022-10-19T11:45:23.586Z,12.68
2022-10-19T11:47:59.513Z,13.73
2022-10-19T11:50:35.870Z,11.63
2022-10-19T11:53:09.644Z,12.32
2022-10-19T11:55:42.909Z,11.10
2022-10-19T11:58:33.699Z,14.20
2022-10-19T12:01:08.144Z,14.95
2022-10-19T12:03:50.765Z,14.55
2022-10-19T12:06:36.812Z,13.90
2022-10-19T12:09:11.033Z,14.52
2022-10-19T12:11:47.525Z,15.77
2022-10-19T12:14:18.650Z,16.10
2022-10-19T12:16:51.180Z,17.20
2022-10-19T12:19:23.454Z,15.57
2022-10-19T12:21:51.526Z,14.73
2022-10-19T12:24:20.891Z,14.63
2022-10-19T12:26:48.482Z,12.60
2022-10-19T12:29:22.611Z,13.80
2022-10-19T12:31:50.168Z,15.18
2022-10-19T12:34:23.842Z,14.55
2022-10-19T12:36:51.071Z,14.65
2022-10-19T12:39:18.369Z,15.05
2022-10-19T12:42:03.490Z,15.05
2022-10-19T12:44:42.947Z,15.88
2022-10-19T12:47:10.209Z,15.82
2022-10-19T12:49:38.612Z,15.32
2022-10-19T12:52:08.016Z,14.82
2022-10-19T12:54:37.160Z,14.02
2022-10-19T12:57:05.508Z,14.25
2022-10-19T12:59:37.250Z,15.10
2022-10-19T13:02:06.725Z,15.02
2022-10-19T13:04:35.996Z,15.25
2022-10-19T13:07:05.103Z,15.20
2022-10-19T13:09:48.910Z,14.75
2022-10-19T13:12:19.870Z,15.07
2022-10-19T13:14:55.805Z,14.82
2022-10-19T13:17:36.921Z,14.38
2022-10-19T13:20:16.480Z,13.90
2022-10-19T13:22:49.034Z,14.40
2022-10-19T13:25:21.803Z,15.30
2022-10-19T13:27:49.835Z,14.02
2022-10-19T13:30:36.048Z,13.60
2022-10-19T13:33:22.072Z,14.77
2022-10-19T13:35:49.896Z,15.73
2022-10-19T13:38:17.301Z,16.27
2022-10-19T13:40:50.808Z,15.75
2022-10-19T13:43:30.418Z,13.70
2022-10-19T13:46:03.851Z,12.77
2022-10-19T13:48:51.324Z,12.55
2022-10-19T13:51:21.590Z,13.50
2022-10-19T13:54:02.215Z,12.82
2022-10-19T13:56:41.327Z,11.43
2022-10-19T13:59:11.586Z,12.43
2022-10-19T14:01:45.053Z,11.88
2022-10-19T14:04:22.536Z,11.50
2022-10-19T14:06:49.784Z,10.95
2022-10-19T14:09:35.852Z,11.70
2022-10-19T14:12:14.599Z,11.27
2022-10-19T14:14:43.385Z,11.95
2022-10-19T14:17:21.460Z,11.85
2022-10-19T14:19:51.171Z,16.52
2022-10-19T14:22:24.494Z,12.25
2022-10-19T14:24:51.724Z,12.15
2022-10-19T14:27:25.514Z,12.55
2022-10-19T14:29:53.824Z,12.05
2022-10-19T14:32:24.265Z,12.52
2022-10-19T14:34:51.960Z,12.75
2022-10-19T14:37:37.858Z,12.25
2022-10-19T14:40:08.015Z,11.77
2022-10-19T14:42:43.047Z,12.07
2022-10-19T14:45:30.570Z,12.10
2022-10-19T14:47:59.376Z,11.75
2022-10-19T14:53:11.228Z,11.45
2022-10-19T14:55:40.140Z,11.80
2022-10-19T14:58:10.478Z,10.88
2022-10-19T15:00:37.855Z,11.45
2022-10-19T15:03:07.492Z,11.80
2022-10-19T15:05:36.546Z,12.87
2022-10-19T15:08:12.162Z,11.40
2022-10-19T15:10:45.819Z,10.65
2022-10-19T15:13:45.661Z,11.50
2022-10-19T15:16:31.804Z,11.50
2022-10-19T15:19:03.509Z,10.88
2022-10-19T15:21:33.380Z,10.55
2022-10-19T15:24:08.131Z,10.75
2022-10-19T15:26:35.778Z,11.63
2022-10-19T15:29:10.853Z,10.63
2022-10-19T15:31:38.128Z,11.20
2022-10-19T15:34:05.961Z,10.85
2022-10-19T15:36:34.461Z,10.80
2022-10-19T15:39:17.681Z,13.48
2022-10-19T15:41:51.037Z,15.05
2022-10-19T15:44:35.087Z,10.85
2022-10-19T15:47:20.720Z,11.38
2022-10-19T15:49:55.800Z,12.60
2022-10-19T15:52:23.018Z,10.35
2022-10-19T15:54:50.882Z,9.52
2022-10-19T15:57:37.766Z,9.88
2022-10-19T16:00:13.316Z,10.48
2022-10-19T16:02:40.873Z,10.63
2022-10-19T16:05:08.564Z,10.27
2022-10-19T16:07:38.452Z,10.15
2022-10-19T16:10:07.533Z,9.95
2022-10-19T16:12:34.861Z,9.82
2022-10-19T16:15:02.063Z,12.05
2022-10-19T16:17:29.317Z,10.57
2022-10-19T16:19:56.908Z,11.18
2022-10-19T16:22:24.240Z,10.65
2022-10-19T16:24:51.568Z,11.77
2022-10-19T16:27:18.813Z,12.70
2022-10-19T16:29:46.031Z,13.02
2022-10-19T16:32:13.414Z,12.95
2022-10-19T16:34:41.459Z,11.48
2022-10-19T16:37:08.790Z,12.02
2022-10-19T16:39:36.065Z,10.75
2022-10-19T16:42:03.782Z,10.45
2022-10-19T16:44:31.038Z,10.02
2022-10-19T16:46:58.782Z,10.45
2022-10-19T16:49:26.773Z,10.68
2022-10-19T16:51:57.220Z,10.65
2022-10-19T16:54:26.877Z,11.55
2022-10-19T16:56:55.672Z,11.88
2022-10-19T16:59:23.901Z,12.10
2022-10-19T17:01:51.429Z,10.50
2022-10-19T17:04:18.796Z,12.00
2022-10-19T17:06:46.186Z,12.68
2022-10-19T17:09:37.141Z,9.85
2022-10-19T17:12:01.141Z,10.55
2022-10-19T17:14:28.486Z,15.35
2022-10-19T17:16:56.384Z,13.30
2022-10-19T17:19:23.653Z,11.23
2022-10-19T17:21:51.179Z,10.32
2022-10-19T17:24:21.887Z,11.00
2022-10-19T17:26:50.333Z,11.77
2022-10-19T17:29:19.400Z,12.35
2022-10-19T17:31:47.637Z,10.30
2022-10-19T17:34:15.170Z,10.77
2022-10-19T17:36:47.035Z,11.98
2022-10-19T17:39:19.749Z,12.20
2022-10-19T17:41:47.880Z,12.68
2022-10-19T17:44:15.520Z,12.68
2022-10-19T17:46:43.068Z,11.55
2022-10-19T17:49:10.535Z,13.77
2022-10-19T17:51:38.066Z,12.38
2022-10-19T17:54:07.704Z,12.77
2022-10-19T17:56:35.551Z,13.35
2022-10-19T17:59:03.179Z,13.82
2022-10-19T18:01:31.218Z,13.10
2022-10-19T18:03:58.707Z,14.40
2022-10-19T18:06:27.240Z,14.35
2022-10-19T18:08:56.686Z,13.60
2022-10-19T18:11:28.669Z,15.20
2022-10-19T18:13:57.977Z,14.05
2022-10-19T18:16:30.293Z,13.63
2022-10-19T18:18:58.990Z,13.93
2022-10-19T18:21:28.125Z,13.88
2022-10-19T18:23:56.551Z,14.97
2022-10-19T18:26:24.696Z,14.77
2022-10-19T18:28:52.734Z,15.05
2022-10-19T18:31:21.219Z,14.52
2022-10-19T18:33:49.393Z,14.95
2022-10-19T18:36:16.740Z,14.60
2022-10-19T18:38:44.797Z,14.60
2022-10-19T18:43:41.451Z,13.68
2022-10-19T18:46:09.386Z,14.88
2022-10-19T18:48:39.804Z,13.45
2022-10-19T18:51:09.020Z,14.43
2022-10-19T18:53:36.314Z,13.90
2022-10-19T18:56:07.729Z,14.05
2022-10-19T18:58:35.650Z,12.98
2022-10-19T19:01:16.483Z,13.07
2022-10-19T19:03:45.334Z,13.30
2022-10-19T19:06:17.718Z,13.43
2022-10-19T19:08:45.123Z,13.93
2022-10-19T19:11:19.929Z,13.95
2022-10-19T19:13:51.965Z,14.50
2022-10-19T19:16:19.534Z,13.82
2022-10-19T19:18:46.756Z,13.88
2022-10-19T19:21:15.560Z,13.95
2022-10-19T19:23:42.990Z,14.70
2022-10-19T19:26:11.162Z,13.50
2022-10-19T19:28:41.454Z,13.50
2022-10-19T19:31:10.348Z,12.38
2022-10-19T19:33:37.754Z,12.20
2022-10-19T19:36:08.729Z,13.32
2022-10-19T19:38:36.917Z,13.65
2022-10-19T19:41:05.098Z,13.13
2022-10-19T19:43:33.319Z,13.88
2022-10-19T19:46:04.630Z,14.02
2022-10-19T19:48:35.239Z,13.02
2022-10-19T19:51:02.421Z,13.40
2022-10-19T19:53:29.669Z,14.07
2022-10-19T19:55:56.969Z,14.10
2022-10-19T19:58:24.242Z,13.48
2022-10-19T20:00:51.757Z,14.15
2022-10-19T20:03:19.105Z,13.85
2022-10-19T20:05:46.326Z,14.27
2022-10-19T20:08:13.618Z,14.43
2022-10-19T20:10:42.426Z,13.75
2022-10-19T20:13:09.829Z,13.05
2022-10-19T20:15:40.155Z,13.20
2022-10-19T20:18:07.766Z,14.63
2022-10-19T20:20:34.990Z,15.10
2022-10-19T20:23:02.233Z,15.57
2022-10-19T20:25:29.472Z,15.18
2022-10-19T20:27:56.928Z,14.55
2022-10-19T20:30:24.405Z,15.63
2022-10-19T20:32:53.996Z,14.90
2022-10-19T20:35:22.272Z,16.30
2022-10-19T20:37:53.222Z,14.85
2022-10-19T20:40:20.703Z,14.20
2022-10-19T20:42:48.385Z,15.75
2022-10-19T20:45:15.785Z,16.75
2022-10-19T20:47:43.128Z,15.73
2022-10-19T20:50:10.617Z,15.45
2022-10-19T20:52:38.598Z,14.70
2022-10-19T20:55:06.799Z,15.48
2022-10-19T20:57:34.148Z,16.38
2022-10-19T21:00:01.391Z,14.65
2022-10-19T21:02:28.641Z,14.57
2022-10-19T21:04:55.924Z,15.15
2022-10-19T21:07:23.460Z,14.32
2022-10-19T21:09:50.866Z,15.70
2022-10-19T21:12:18.104Z,15.10
2022-10-19T21:14:45.347Z,15.70
2022-10-19T21:17:12.583Z,15.55
2022-10-19T21:19:39.976Z,14.65
2022-10-19T21:22:08.556Z,16.45
2022-10-19T21:24:36.824Z,17.23
2022-10-19T21:27:05.588Z,16.67
2022-10-19T21:29:33.284Z,16.88
2022-10-19T21:32:00.695Z,17.23
2022-10-19T21:34:28.650Z,16.38
2022-10-19T21:36:56.048Z,17.02
2022-10-19T21:39:23.684Z,16.63
2022-10-19T21:41:51.119Z,16.50
2022-10-19T21:44:19.180Z,16.27
2022-10-19T21:46:47.970Z,15.77
2022-10-19T21:49:15.526Z,16.50
2022-10-19T21:51:42.772Z,15.82
2022-10-19T21:54:13.015Z,16.73
2022-10-19T21:56:40.403Z,17.13
2022-10-19T21:59:07.911Z,16.85
2022-10-19T22:01:38.678Z,17.80
2022-10-19T22:04:09.636Z,17.67
2022-10-19T22:06:37.309Z,16.42
2022-10-19T22:09:06.226Z,17.58
2022-10-19T22:11:33.692Z,17.35
2022-10-19T22:14:01.876Z,17.00
2022-10-19T22:16:30.157Z,18.98
2022-10-19T22:18:57.708Z,18.77
2022-10-19T22:21:26.682Z,18.23
2022-10-19T22:23:55.097Z,17.00
2022-10-19T22:26:23.770Z,18.55
2022-10-19T22:28:51.333Z,17.23
2022-10-19T22:31:18.552Z,17.83
2022-10-19T22:33:48.912Z,18.70
2022-10-19T22:36:16.364Z,18.70
2022-10-19T22:38:43.572Z,18.47
2022-10-19T22:41:10.823Z,17.67
2022-10-19T22:43:38.028Z,19.10
2022-10-19T22:46:05.252Z,18.53
2022-10-19T22:48:32.882Z,18.13
2022-10-19T22:51:00.200Z,17.83
2022-10-19T22:53:28.057Z,18.45
2022-10-19T22:55:55.310Z,18.00
2022-10-19T22:58:22.656Z,17.75
2022-10-19T23:01:03.459Z,17.23
2022-10-19T23:03:30.786Z,18.65
2022-10-19T23:05:58.082Z,18.38
2022-10-19T23:08:25.417Z,18.80
2022-10-19T23:10:52.807Z,17.17
2022-10-19T23:13:20.112Z,18.08
2022-10-19T23:15:47.421Z,17.90
2022-10-19T23:18:14.739Z,19.13
2022-10-19T23:20:42.134Z,19.47
2022-10-19T23:23:09.986Z,18.13
2022-10-19T23:25:37.234Z,19.55
2022-10-19T23:28:04.555Z,18.50
2022-10-19T23:30:31.755Z,18.25
2022-10-19T23:32:58.950Z,18.30
2022-10-19T23:35:26.222Z,18.92
2022-10-19T23:37:53.613Z,19.75
2022-10-19T23:40:20.841Z,18.98
2022-10-19T23:42:48.038Z,19.33
2022-10-19T23:45:15.357Z,18.90
2022-10-19T23:47:42.573Z,19.08
2022-10-19T23:50:09.859Z,18.80
2022-10-19T23:52:37.205Z,18.17
2022-10-19T23:55:04.715Z,18.35
2022-10-19T23:57:31.991Z,21.20
2022-10-19T23:59:59.228Z,22.73
